createdAt,value
2022-10-17T00:02:24.896Z,12.55
2022-10-17T00:07:26.675Z,12.51
2022-10-17T00:12:28.292Z,12.77
2022-10-17T00:17:30.164Z,12.72
2022-10-17T00:22:31.954Z,12.64
2022-10-17T00:27:38.057Z,12.59
2022-10-17T00:32:39.917Z,12.67
2022-10-17T00:37:41.315Z,12.63
2022-10-17T00:42:42.783Z,12.70
2022-10-17T00:47:48.439Z,12.74
2022-10-17T00:52:50.602Z,12.73
2022-10-17T00:57:53.062Z,12.61
2022-10-17T01:02:54.673Z,12.78
2022-10-17T01:07:56.545Z,12.79
2022-10-17T01:13:13.977Z,12.75
2022-10-17T01:18:39.946Z,12.86
2022-10-17T01:24:08.380Z,12.82
2022-10-17T01:29:33.448Z,12.76
2022-10-17T01:34:44.064Z,12.80
2022-10-17T01:39:54.129Z,12.78
2022-10-17T01:45:07.389Z,12.99
2022-10-17T01:50:16.740Z,13.08
2022-10-17T01:55:27.908Z,13.12
2022-10-17T02:00:31.255Z,13.10
2022-10-17T02:05:38.363Z,12.92
2022-10-17T02:10:52.110Z,13.00
2022-10-17T02:16:20.211Z,13.15
2022-10-17T02:21:39.962Z,13.07
2022-10-17T02:26:47.993Z,13.22
2022-10-17T02:32:05.644Z,13.07
2022-10-17T02:37:10.017Z,13.15
2022-10-17T02:42:13.833Z,13.14
2022-10-17T02:47:20.941Z,13.16
2022-10-17T02:52:37.261Z,13.03
2022-10-17T02:57:44.572Z,12.99
2022-10-17T03:02:49.288Z,13.00
2022-10-17T03:07:51.451Z,13.18
2022-10-17T03:12:52.871Z,13.08
2022-10-17T03:17:54.317Z,13.09
2022-10-17T03:22:55.763Z,13.12
2022-10-17T03:28:01.572Z,13.19
2022-10-17T03:33:03.041Z,13.32
2022-10-17T03:38:04.485Z,13.21
2022-10-17T03:43:05.981Z,13.07
2022-10-17T03:48:07.604Z,12.95
2022-10-17T03:53:09.029Z,13.06
2022-10-17T03:58:10.453Z,12.92
2022-10-17T04:03:14.946Z,12.82
2022-10-17T04:08:18.784Z,12.87
2022-10-17T04:13:20.268Z,12.87
2022-10-17T04:18:21.955Z,12.93
2022-10-17T04:23:23.374Z,12.98
2022-10-17T04:28:26.323Z,13.05
2022-10-17T04:33:28.561Z,13.19
2022-10-17T04:38:31.045Z,13.41
2022-10-17T04:43:34.305Z,13.12
2022-10-17T04:48:35.897Z,13.41
2022-10-17T04:53:38.513Z,13.52
2022-10-17T04:58:40.499Z,13.33
2022-10-17T05:03:42.332Z,13.56
2022-10-17T05:08:44.443Z,13.52
2022-10-17T05:13:53.240Z,13.43
2022-10-17T05:18:56.662Z,13.45
2022-10-17T05:23:58.501Z,13.35
2022-10-17T05:29:02.879Z,13.24
2022-10-17T05:34:04.521Z,13.26
2022-10-17T05:39:06.016Z,13.19
2022-10-17T05:44:07.400Z,13.12
2022-10-17T05:49:15.010Z,13.05
2022-10-17T05:54:27.317Z,13.04
2022-10-17T05:59:28.891Z,13.26
2022-10-17T06:04:30.350Z,13.33
2022-10-17T06:09:31.738Z,13.22
2022-10-17T06:14:33.444Z,13.38
2022-10-17T06:19:35.367Z,13.35
2022-10-17T06:24:36.762Z,13.21
2022-10-17T06:29:38.145Z,13.50
2022-10-17T06:34:39.808Z,13.61
2022-10-17T06:39:41.351Z,13.75
2022-10-17T06:44:42.841Z,13.74
2022-10-17T06:49:44.383Z,13.79
2022-10-17T06:54:46.087Z,13.73
2022-10-17T06:59:48.146Z,13.74
2022-10-17T07:04:49.986Z,13.74
2022-10-17T07:09:51.704Z,13.94
2022-10-17T07:14:53.178Z,14.02
2022-10-17T07:19:54.550Z,14.32
2022-10-17T07:24:56.190Z,14.23
2022-10-17T07:29:57.649Z,14.43
2022-10-17T07:34:59.051Z,14.63
2022-10-17T07:40:00.495Z,14.66
2022-10-17T07:45:02.224Z,14.75
2022-10-17T07:50:05.618Z,14.77
2022-10-17T07:55:07.882Z,14.76
2022-10-17T08:00:11.861Z,14.96
2022-10-17T08:05:13.388Z,15.07
2022-10-17T08:10:16.246Z,14.97
2022-10-17T08:15:17.701Z,15.13
2022-10-17T08:20:19.115Z,14.84
2022-10-17T08:25:20.720Z,14.97
2022-10-17T08:30:22.146Z,15.12
2022-10-17T08:35:25.244Z,15.05
2022-10-17T08:40:29.375Z,14.98
2022-10-17T08:45:41.425Z,14.90
2022-10-17T08:51:05.434Z,14.97
2022-10-17T08:56:44.028Z,15.11
2022-10-17T09:01:58.666Z,15.16
2022-10-17T09:07:13.038Z,15.07
2022-10-17T09:12:49.706Z,15.09
2022-10-17T09:17:56.408Z,15.19
2022-10-17T09:23:02.076Z,15.19
2022-10-17T09:28:15.624Z,15.19
2022-10-17T09:33:42.406Z,15.19
2022-10-17T09:38:54.421Z,15.16
2022-10-17T09:44:12.156Z,15.12
2022-10-17T09:49:19.823Z,15.26
2022-10-17T09:54:30.505Z,15.20
2022-10-17T09:59:35.411Z,15.16
2022-10-17T10:04:59.780Z,15.18
2022-10-17T10:10:00.280Z,15.21
2022-10-17T10:15:02.135Z,15.24
2022-10-17T10:20:30.648Z,15.26
2022-10-17T10:25:32.620Z,15.25
2022-10-17T10:30:36.221Z,15.26
2022-10-17T10:35:40.852Z,15.25
2022-10-17T10:40:52.639Z,15.28
2022-10-17T10:45:54.375Z,15.28
2022-10-17T10:51:17.439Z,15.30
2022-10-17T10:56:40.132Z,15.36
2022-10-17T11:01:47.546Z,15.34
2022-10-17T11:06:52.342Z,15.27
2022-10-17T11:12:20.481Z,15.27
2022-10-17T11:17:33.174Z,15.26
2022-10-17T11:22:42.210Z,15.27
2022-10-17T11:27:43.598Z,15.33
2022-10-17T11:32:56.890Z,15.35
2022-10-17T11:38:15.114Z,15.41
2022-10-17T11:43:25.549Z,15.53
2022-10-17T11:48:51.118Z,15.57
2022-10-17T11:54:17.597Z,15.66
2022-10-17T12:00:07.557Z,15.69
2022-10-17T12:05:56.514Z,15.64
2022-10-17T12:11:05.083Z,15.63
2022-10-17T12:16:21.489Z,15.70
2022-10-17T12:21:22.925Z,15.77
2022-10-17T12:26:29.516Z,15.81
2022-10-17T12:31:34.064Z,15.86
2022-10-17T12:36:35.852Z,15.80
2022-10-17T12:41:40.255Z,15.86
2022-10-17T12:47:06.168Z,15.84
2022-10-17T12:52:11.021Z,15.94
2022-10-17T12:57:33.811Z,15.89
2022-10-17T13:02:35.559Z,15.82
2022-10-17T13:07:40.719Z,15.81
2022-10-17T13:12:42.246Z,15.81
2022-10-17T13:17:43.980Z,15.83
2022-10-17T13:22:46.067Z,15.92
2022-10-17T13:27:48.886Z,15.88
2022-10-17T13:32:50.578Z,15.92
2022-10-17T13:37:54.157Z,15.90
2022-10-17T13:42:57.749Z,15.88
2022-10-17T13:48:05.515Z,15.92
2022-10-17T13:53:08.173Z,15.92
2022-10-17T13:58:18.889Z,15.95
2022-10-17T14:03:21.640Z,15.94
2022-10-17T14:08:23.811Z,16.00
2022-10-17T14:13:28.888Z,15.97
2022-10-17T14:18:36.386Z,16.05
2022-10-17T14:23:45.092Z,16.03
2022-10-17T14:28:51.126Z,16.03
2022-10-17T14:33:53.583Z,16.04
2022-10-17T14:38:55.119Z,16.00
2022-10-17T14:43:59.778Z,16.07
2022-10-17T14:49:23.247Z,16.07
2022-10-17T14:54:27.524Z,16.10
2022-10-17T14:59:53.371Z,16.12
2022-10-17T15:04:50.488Z,16.11
2022-10-17T15:09:53.475Z,16.05
2022-10-17T15:14:55.011Z,16.03
2022-10-17T15:19:57.272Z,16.05
2022-10-17T15:24:58.647Z,16.05
2022-10-17T15:30:00.260Z,16.05
2022-10-17T15:35:01.644Z,16.02
2022-10-17T15:40:03.644Z,15.91
2022-10-17T15:45:05.841Z,15.95
2022-10-17T15:50:09.026Z,15.93
2022-10-17T15:55:11.140Z,15.88
2022-10-17T16:00:17.367Z,15.82
2022-10-17T16:05:26.013Z,15.74
2022-10-17T16:10:28.225Z,15.68
2022-10-17T16:15:29.765Z,15.57
2022-10-17T16:20:32.053Z,15.42
2022-10-17T16:25:33.867Z,15.42
2022-10-17T16:30:42.488Z,15.42
2022-10-17T16:35:45.620Z,15.36
2022-10-17T16:40:47.042Z,15.35
2022-10-17T16:45:48.476Z,15.35
2022-10-17T16:50:49.859Z,15.37
2022-10-17T16:56:05.044Z,15.35
2022-10-17T17:01:09.743Z,15.35
2022-10-17T17:06:19.188Z,15.34
2022-10-17T17:11:23.791Z,15.31
2022-10-17T17:16:26.894Z,15.35
2022-10-17T17:21:28.389Z,15.31
2022-10-17T17:26:32.902Z,15.17
2022-10-17T17:31:35.642Z,15.15
2022-10-17T17:36:38.079Z,15.13
2022-10-17T17:41:40.603Z,15.10
2022-10-17T17:46:43.525Z,15.07
2022-10-17T17:51:46.453Z,14.98
2022-10-17T17:56:47.970Z,14.92
2022-10-17T18:01:49.464Z,14.91
2022-10-17T18:06:50.922Z,14.90
2022-10-17T18:11:52.562Z,14.99
2022-10-17T18:16:53.955Z,14.94
2022-10-17T18:21:55.373Z,14.98
2022-10-17T18:26:59.776Z,15.00
2022-10-17T18:32:05.962Z,14.99
2022-10-17T18:37:07.392Z,15.01
2022-10-17T18:42:09.585Z,15.01
2022-10-17T18:47:11.216Z,14.98
2022-10-17T18:52:19.922Z,14.96
2022-10-17T18:57:26.003Z,14.92
2022-10-17T19:02:34.270Z,14.95
2022-10-17T19:07:40.932Z,14.96
2022-10-17T19:12:44.947Z,14.85
2022-10-17T19:17:46.476Z,14.84
2022-10-17T19:22:48.171Z,14.92
2022-10-17T19:27:51.659Z,14.91
2022-10-17T19:32:53.316Z,14.90
2022-10-17T19:37:55.049Z,14.85
2022-10-17T19:42:57.050Z,14.84
2022-10-17T19:47:58.833Z,14.85
2022-10-17T19:53:00.381Z,14.89
2022-10-17T19:58:03.126Z,14.84
2022-10-17T20:03:06.949Z,14.80
2022-10-17T20:08:14.186Z,14.87
2022-10-17T20:13:15.868Z,14.80
2022-10-17T20:18:17.444Z,14.81
2022-10-17T20:23:19.320Z,14.77
2022-10-17T20:28:20.895Z,14.64
2022-10-17T20:33:31.753Z,14.66
2022-10-17T20:38:33.784Z,14.60
2022-10-17T20:43:41.190Z,14.56
2022-10-17T20:48:43.946Z,14.61
2022-10-17T20:53:45.801Z,14.69
2022-10-17T20:59:08.160Z,14.70
2022-10-17T21:09:56.165Z,14.82
2022-10-17T21:14:58.946Z,14.70
2022-10-17T21:20:07.095Z,14.61
2022-10-17T21:25:10.171Z,14.75
2022-10-17T21:30:11.868Z,14.63
2022-10-17T21:35:20.909Z,14.36
2022-10-17T21:40:26.061Z,14.20
2022-10-17T21:45:28.148Z,14.19
2022-10-17T21:50:32.809Z,14.25
2022-10-17T21:55:43.568Z,14.23
2022-10-17T22:00:47.376Z,14.11
2022-10-17T22:06:06.842Z,13.96
2022-10-17T22:11:25.520Z,14.09
2022-10-17T22:16:39.339Z,13.99
2022-10-17T22:21:45.381Z,13.96
2022-10-17T22:26:54.511Z,14.04
2022-10-17T22:31:56.042Z,13.92
2022-10-17T22:37:09.139Z,13.87
2022-10-17T22:47:24.451Z,13.65
2022-10-17T22:52:26.579Z,13.50
2022-10-17T22:57:31.636Z,13.44
2022-10-17T23:02:40.479Z,13.28
2022-10-17T23:07:41.939Z,13.31
2022-10-17T23:12:43.494Z,13.21
2022-10-17T23:17:44.914Z,13.17
2022-10-17T23:22:46.386Z,13.15
2022-10-17T23:27:48.111Z,13.34
2022-10-17T23:32:49.529Z,13.70
2022-10-17T23:37:50.920Z,13.51
2022-10-17T23:42:52.378Z,13.62
2022-10-17T23:47:53.771Z,13.66
2022-10-17T23:52:55.244Z,13.75
2022-10-17T23:57:56.660Z,13.70
